Time;durP1;ratioP1;P1;durP2;ratioP2;P2;SDS_P1;SDS_P2;PMS_P1;PMS_P2;Temp;Humidity;BMP_temperature;BMP_pressure;BME280_temperature;BME280_humidity;BME280_pressure;Samples;Min_cycle;Max_cycle;Signal;HPM_P1;HPM_P2
2022/08/01 00:02:02;;;;;;;15.23;14.63;;;;;;;;;;5114097;28;20193;-76
2022/08/01 00:04:29;;;;;;;15.68;15.07;;;;;;;;;;5114375;28;20223;-78
2022/08/01 00:06:56;;;;;;;15.82;15.23;;;;;;;;;;5113922;28;20193;-78
2022/08/01 00:09:23;;;;;;;15.68;15.07;;;;;;;;;;5113926;28;20203;-77
2022/08/01 00:11:50;;;;;;;15.70;15.10;;;;;;;;;;5114167;28;20193;-78
2022/08/01 00:14:17;;;;;;;15.32;14.73;;;;;;;;;;5113898;28;20254;-77
2022/08/01 00:16:44;;;;;;;16.67;15.98;;;;;;;;;;5113784;28;20689;-78
2022/08/01 00:19:13;;;;;;;16.40;15.70;;;;;;;;;;5113985;28;20289;-77
2022/08/01 00:21:40;;;;;;;15.65;15.05;;;;;;;;;;5113698;28;20201;-77
2022/08/01 00:24:07;;;;;;;15.77;15.18;;;;;;;;;;5113628;28;20614;-76
2022/08/01 00:26:34;;;;;;;16.23;15.52;;;;;;;;;;5113592;28;20193;-78
2022/08/01 00:29:01;;;;;;;16.50;15.80;;;;;;;;;;5113606;28;20189;-79
2022/08/01 00:31:28;;;;;;;15.82;15.23;;;;;;;;;;5113768;28;20204;-78
2022/08/01 00:33:55;;;;;;;16.17;15.48;;;;;;;;;;5113437;28;20558;-77
2022/08/01 00:36:23;;;;;;;16.10;15.40;;;;;;;;;;5113397;28;20200;-78
2022/08/01 00:38:50;;;;;;;16.27;15.57;;;;;;;;;;5113378;28;20225;-78
2022/08/01 00:41:17;;;;;;;16.50;15.80;;;;;;;;;;5113300;28;20193;-77
2022/08/01 00:43:44;;;;;;;16.42;15.73;;;;;;;;;;5113166;28;20225;-77
2022/08/01 00:46:11;;;;;;;16.25;15.55;;;;;;;;;;5113292;28;20200;-78
2022/08/01 00:48:38;;;;;;;15.95;15.25;;;;;;;;;;5113175;28;20284;-77
2022/08/01 00:51:06;;;;;;;16.08;15.38;;;;;;;;;;5113186;28;20196;-78
2022/08/01 00:53:34;;;;;;;15.80;15.10;;;;;;;;;;5113084;28;20193;-78
2022/08/01 00:56:02;;;;;;;15.80;15.20;;;;;;;;;;5113073;28;20193;-77
2022/08/01 00:58:31;;;;;;;14.73;14.13;;;;;;;;;;5113234;28;20246;-77
2022/08/01 01:00:59;;;;;;;15.60;15.00;;;;;;;;;;5112995;28;20686;-77
2022/08/01 01:03:26;;;;;;;16.20;15.50;;;;;;;;;;5112977;28;20294;-77
2022/08/01 01:05:57;;;;;;;15.50;14.90;;;;;;;;;;5112878;28;20197;-77
2022/08/01 01:08:28;;;;;;;15.13;14.52;;;;;;;;;;5112906;28;20573;-77
2022/08/01 01:10:59;;;;;;;15.00;14.40;;;;;;;;;;5112824;28;20193;-76
2022/08/01 01:13:30;;;;;;;15.30;14.70;;;;;;;;;;5113139;28;20578;-77
2022/08/01 01:15:59;;;;;;;15.30;14.70;;;;;;;;;;5112732;28;20196;-77
2022/08/01 01:18:31;;;;;;;14.77;14.27;;;;;;;;;;5112659;28;20197;-77
2022/08/01 01:21:01;;;;;;;14.80;14.30;;;;;;;;;;5112690;28;20275;-77
2022/08/01 01:23:39;;;;;;;14.90;14.40;;;;;;;;;;5113024;28;20193;-76
2022/08/01 01:26:12;;;;;;;14.18;13.68;;;;;;;;;;5112605;28;20192;-78
2022/08/01 01:28:46;;;;;;;14.25;13.75;;;;;;;;;;5112666;28;20181;-76
2022/08/01 01:31:17;;;;;;;13.90;13.40;;;;;;;;;;5112879;28;20220;-77
2022/08/01 01:33:45;;;;;;;13.85;13.35;;;;;;;;;;5112564;28;20189;-77
2022/08/01 01:36:14;;;;;;;13.82;13.32;;;;;;;;;;5112762;28;20328;-77
2022/08/01 01:38:43;;;;;;;13.15;12.75;;;;;;;;;;5113562;28;20215;-77
2022/08/01 01:41:11;;;;;;;12.85;12.45;;;;;;;;;;5112488;28;20249;-77
2022/08/01 01:43:38;;;;;;;13.23;12.82;;;;;;;;;;5112180;28;20235;-77
2022/08/01 01:46:06;;;;;;;13.30;12.90;;;;;;;;;;5112416;28;20196;-78
2022/08/01 01:48:35;;;;;;;12.95;12.55;;;;;;;;;;5112347;28;20193;-77
2022/08/01 01:51:02;;;;;;;13.63;13.23;;;;;;;;;;5115767;28;20680;-77
2022/08/01 01:53:29;;;;;;;13.23;12.82;;;;;;;;;;5116576;28;20197;-77
2022/08/01 01:55:58;;;;;;;12.70;12.30;;;;;;;;;;5116576;28;20204;-76
2022/08/01 01:58:26;;;;;;;12.30;11.90;;;;;;;;;;5116475;28;20197;-77
2022/08/01 02:00:54;;;;;;;12.10;11.70;;;;;;;;;;5116349;28;20229;-77
2022/08/01 02:03:21;;;;;;;12.27;11.88;;;;;;;;;;5116697;28;20205;-76
2022/08/01 02:05:51;;;;;;;12.05;11.65;;;;;;;;;;5116720;28;20197;-77
2022/08/01 02:08:19;;;;;;;12.70;12.30;;;;;;;;;;5116377;28;20201;-77
2022/08/01 02:11:17;;;;;;;13.30;12.90;;;;;;;;;;5116277;28;20220;-77
2022/08/01 02:13:35;;;;;;;13.70;13.25;;;;;;;;;;5116079;28;20193;-77
2022/08/01 02:16:02;;;;;;;13.90;13.40;;;;;;;;;;5116178;28;20200;-77
2022/08/01 02:18:29;;;;;;;14.30;13.80;;;;;;;;;;5116074;28;20246;-77
2022/08/01 02:20:59;;;;;;;14.48;13.98;;;;;;;;;;5116038;28;20267;-77
2022/08/01 02:23:29;;;;;;;14.60;14.10;;;;;;;;;;5116033;28;20197;-76
2022/08/01 02:25:58;;;;;;;14.85;14.35;;;;;;;;;;5115940;28;20189;-77
2022/08/01 02:28:28;;;;;;;14.32;13.82;;;;;;;;;;5115943;28;20192;-77
2022/08/01 02:30:56;;;;;;;13.70;13.20;;;;;;;;;;5115904;28;20284;-77
2022/08/01 02:33:24;;;;;;;13.15;12.75;;;;;;;;;;5115816;28;20681;-77
2022/08/01 02:35:53;;;;;;;13.02;12.63;;;;;;;;;;5115800;28;20197;-78
2022/08/01 02:38:23;;;;;;;12.73;12.32;;;;;;;;;;5116066;28;20200;-77
2022/08/01 02:40:51;;;;;;;13.00;12.60;;;;;;;;;;5116010;28;20240;-77
2022/08/01 02:43:19;;;;;;;13.13;12.73;;;;;;;;;;5115404;28;20630;-77
2022/08/01 02:45:49;;;;;;;13.82;13.32;;;;;;;;;;5115596;28;20201;-77
2022/08/01 02:48:18;;;;;;;13.90;13.40;;;;;;;;;;5115594;28;20208;-77
2022/08/01 02:50:46;;;;;;;13.35;12.95;;;;;;;;;;5115489;28;20200;-77
2022/08/01 02:53:14;;;;;;;13.48;13.07;;;;;;;;;;5115465;28;20288;-77
2022/08/01 02:55:44;;;;;;;13.25;12.85;;;;;;;;;;5115377;28;20204;-77
2022/08/01 02:58:13;;;;;;;13.63;13.15;;;;;;;;;;5115426;28;20238;-77
2022/08/01 03:00:41;;;;;;;14.20;13.70;;;;;;;;;;5115170;28;20235;-77
2022/08/01 03:03:09;;;;;;;14.30;13.80;;;;;;;;;;5114665;28;20193;-77
2022/08/01 03:05:36;;;;;;;14.50;14.00;;;;;;;;;;5115209;28;20197;-77
2022/08/01 03:08:03;;;;;;;14.70;14.20;;;;;;;;;;5115425;28;20197;-77
2022/08/01 03:10:31;;;;;;;14.57;14.07;;;;;;;;;;5115468;28;20272;-77
2022/08/01 03:13:01;;;;;;;14.00;13.50;;;;;;;;;;5115117;28;20193;-77
2022/08/01 03:15:30;;;;;;;14.85;14.32;;;;;;;;;;5115367;28;20197;-77
2022/08/01 03:17:58;;;;;;;15.18;14.57;;;;;;;;;;5114976;28;20284;-78
2022/08/01 03:20:26;;;;;;;15.20;14.60;;;;;;;;;;5114891;28;20233;-78
2022/08/01 03:22:54;;;;;;;15.00;14.40;;;;;;;;;;5114845;28;20205;-78
2022/08/01 03:25:21;;;;;;;15.18;14.57;;;;;;;;;;5114824;28;20193;-77
2022/08/01 03:27:51;;;;;;;14.77;14.27;;;;;;;;;;5114767;28;20249;-77
2022/08/01 03:30:19;;;;;;;15.32;14.73;;;;;;;;;;5114654;28;20713;-76
2022/08/01 03:32:47;;;;;;;14.85;14.30;;;;;;;;;;5114785;28;20200;-77
2022/08/01 03:35:14;;;;;;;14.73;14.23;;;;;;;;;;5114609;28;20224;-77
2022/08/01 03:37:43;;;;;;;14.80;14.30;;;;;;;;;;5114609;28;20189;-77
2022/08/01 03:40:12;;;;;;;14.60;14.10;;;;;;;;;;5114442;28;20221;-77
2022/08/01 03:42:42;;;;;;;15.18;14.57;;;;;;;;;;5114482;28;20189;-77
2022/08/01 03:45:12;;;;;;;14.80;14.30;;;;;;;;;;5073946;28;20679;-77
2022/08/01 03:47:43;;;;;;;15.20;14.60;;;;;;;;;;5073760;28;20225;-77
2022/08/01 03:50:11;;;;;;;15.40;14.80;;;;;;;;;;5073787;28;20186;-77
2022/08/01 03:52:40;;;;;;;15.77;15.18;;;;;;;;;;5073620;28;20203;-77
2022/08/01 03:55:08;;;;;;;16.60;15.90;;;;;;;;;;5073648;28;20656;-76
2022/08/01 03:57:36;;;;;;;16.60;15.90;;;;;;;;;;5073557;28;20626;-77
2022/08/01 04:00:06;;;;;;;17.40;16.60;;;;;;;;;;5073517;28;20234;-77
2022/08/01 04:02:33;;;;;;;17.30;16.50;;;;;;;;;;5073541;28;20201;-77
2022/08/01 04:05:02;;;;;;;17.98;17.08;;;;;;;;;;5073478;28;20248;-77
2022/08/01 04:07:30;;;;;;;17.88;16.98;;;;;;;;;;5073724;28;20206;-77
2022/08/01 04:09:57;;;;;;;18.17;17.17;;;;;;;;;;5073363;28;20684;-77
2022/08/01 04:12:24;;;;;;;17.73;16.73;;;;;;;;;;5073057;28;20547;-77
2022/08/01 04:14:51;;;;;;;18.27;17.27;;;;;;;;;;5072492;28;20198;-76
2022/08/01 04:17:18;;;;;;;18.58;17.58;;;;;;;;;;5073178;28;20197;-76
2022/08/01 04:19:46;;;;;;;19.38;18.27;;;;;;;;;;5073177;28;20222;-75
2022/08/01 04:22:15;;;;;;;19.40;18.30;;;;;;;;;;5073452;28;20583;-76
2022/08/01 04:24:43;;;;;;;19.52;18.35;;;;;;;;;;5073086;28;20248;-78
2022/08/01 04:27:12;;;;;;;20.35;19.15;;;;;;;;;;5073239;28;20220;-77
2022/08/01 04:29:40;;;;;;;20.33;19.13;;;;;;;;;;5072984;28;20202;-78
2022/08/01 04:32:07;;;;;;;20.27;19.08;;;;;;;;;;5072850;28;20194;-76
2022/08/01 04:34:34;;;;;;;20.20;19.00;;;;;;;;;;5072971;28;20664;-78
2022/08/01 04:37:01;;;;;;;20.75;19.45;;;;;;;;;;5072868;28;20660;-78
2022/08/01 04:39:32;;;;;;;20.38;19.10;;;;;;;;;;5072645;28;20198;-78
2022/08/01 04:42:03;;;;;;;20.45;19.15;;;;;;;;;;5073853;28;20190;-76
2022/08/01 04:44:32;;;;;;;20.65;19.35;;;;;;;;;;5103112;28;20812;-78
2022/08/01 04:46:59;;;;;;;20.65;19.35;;;;;;;;;;5113240;28;20601;-78
2022/08/01 04:49:27;;;;;;;20.00;18.70;;;;;;;;;;5113149;28;20253;-77
2022/08/01 04:51:57;;;;;;;20.35;19.05;;;;;;;;;;5113182;28;20321;-77
2022/08/01 04:54:24;;;;;;;21.02;19.73;;;;;;;;;;5113090;28;20193;-76
2022/08/01 04:56:55;;;;;;;21.10;19.80;;;;;;;;;;5113037;28;20543;-75
2022/08/01 04:59:40;;;;;;;19.73;18.52;;;;;;;;;;5113111;28;20192;-76
2022/08/01 05:02:08;;;;;;;24.55;23.05;;;;;;;;;;5113361;28;20208;-76
2022/08/01 05:04:35;;;;;;;20.30;19.05;;;;;;;;;;5112992;28;20704;-78
2022/08/01 05:07:02;;;;;;;20.02;18.83;;;;;;;;;;5112896;28;20193;-76
2022/08/01 05:09:30;;;;;;;20.17;18.98;;;;;;;;;;5113211;28;20235;-78
2022/08/01 05:11:59;;;;;;;20.50;18.92;;;;;;;;;;5112748;28;20196;-78
2022/08/01 05:14:26;;;;;;;18.80;17.70;;;;;;;;;;5112810;28;20193;-78
2022/08/01 05:16:53;;;;;;;18.85;17.75;;;;;;;;;;5112721;28;20189;-78
2022/08/01 05:19:20;;;;;;;18.85;17.85;;;;;;;;;;5113567;28;20189;-76
2022/08/01 05:21:47;;;;;;;19.67;18.58;;;;;;;;;;5112605;28;20224;-77
2022/08/01 05:24:14;;;;;;;20.15;19.05;;;;;;;;;;5112253;28;20204;-77
2022/08/01 05:26:41;;;;;;;20.17;19.08;;;;;;;;;;5112608;28;20193;-77
2022/08/01 05:29:10;;;;;;;20.20;19.10;;;;;;;;;;5112574;28;20224;-76
2022/08/01 05:31:37;;;;;;;19.33;18.17;;;;;;;;;;5112556;28;20200;-75
2022/08/01 05:34:04;;;;;;;19.42;18.33;;;;;;;;;;5112503;28;20200;-74
2022/08/01 05:36:31;;;;;;;19.45;18.35;;;;;;;;;;5112819;28;20267;-76
2022/08/01 05:38:58;;;;;;;19.42;18.33;;;;;;;;;;5112467;28;20284;-75
2022/08/01 05:41:26;;;;;;;19.20;18.10;;;;;;;;;;5112378;28;20235;-76
2022/08/01 05:43:53;;;;;;;20.67;19.48;;;;;;;;;;5112298;28;20233;-75
2022/08/01 05:46:23;;;;;;;20.33;19.13;;;;;;;;;;5112509;28;20200;-76
2022/08/01 05:48:50;;;;;;;20.10;18.90;;;;;;;;;;5112798;28;20192;-75
2022/08/01 05:51:17;;;;;;;19.70;18.50;;;;;;;;;;5112422;28;20201;-77
2022/08/01 05:53:44;;;;;;;19.55;18.35;;;;;;;;;;5112615;28;20195;-75
2022/08/01 05:56:11;;;;;;;21.23;20.02;;;;;;;;;;5112337;28;20754;-74
2022/08/01 05:58:38;;;;;;;20.65;19.45;;;;;;;;;;5112347;28;20190;-75
2022/08/01 06:01:04;;;;;;;20.60;19.40;;;;;;;;;;5112205;28;20235;-75
2022/08/01 06:03:33;;;;;;;20.50;19.30;;;;;;;;;;5113164;28;20201;-77
2022/08/01 06:06:00;;;;;;;20.65;19.45;;;;;;;;;;5112218;28;20232;-78
2022/08/01 06:08:27;;;;;;;21.00;19.80;;;;;;;;;;5112210;28;20211;-78
2022/08/01 06:10:54;;;;;;;22.08;20.67;;;;;;;;;;5112190;28;20226;-79
2022/08/01 06:13:21;;;;;;;21.92;20.63;;;;;;;;;;5112510;28;20231;-78
2022/08/01 06:15:48;;;;;;;21.08;19.88;;;;;;;;;;5112929;28;20723;-75
2022/08/01 06:18:15;;;;;;;21.88;20.58;;;;;;;;;;5112195;28;20683;-75
2022/08/01 06:20:44;;;;;;;20.75;19.55;;;;;;;;;;5112060;28;20257;-76
2022/08/01 06:23:11;;;;;;;21.25;20.05;;;;;;;;;;5112074;28;20193;-75
2022/08/01 06:25:38;;;;;;;21.45;20.25;;;;;;;;;;5113184;28;20211;-77
2022/08/01 06:28:05;;;;;;;21.30;20.10;;;;;;;;;;5112026;28;20262;-75
2022/08/01 06:30:32;;;;;;;20.25;19.05;;;;;;;;;;5112397;28;20273;-78
2022/08/01 06:33:00;;;;;;;22.20;20.90;;;;;;;;;;5111979;28;20669;-76
2022/08/01 06:35:29;;;;;;;20.85;19.65;;;;;;;;;;5112252;28;20310;-75
2022/08/01 06:37:57;;;;;;;20.95;19.73;;;;;;;;;;5115163;28;20219;-74
2022/08/01 06:40:25;;;;;;;20.77;19.58;;;;;;;;;;5115693;28;20697;-73
2022/08/01 06:42:54;;;;;;;21.80;20.50;;;;;;;;;;5115422;28;20197;-76
2022/08/01 06:45:25;;;;;;;22.02;20.73;;;;;;;;;;5115984;28;20224;-76
2022/08/01 06:47:52;;;;;;;22.73;21.38;;;;;;;;;;5115589;28;20289;-77
2022/08/01 06:50:19;;;;;;;22.73;21.33;;;;;;;;;;5115517;28;20246;-76
2022/08/01 06:52:46;;;;;;;22.83;21.52;;;;;;;;;;5115631;28;20550;-76
2022/08/01 06:55:15;;;;;;;21.88;20.58;;;;;;;;;;5115460;28;20727;-77
2022/08/01 06:57:48;;;;;;;25.67;24.13;;;;;;;;;;5115466;28;20193;-78
2022/08/01 07:00:18;;;;;;;24.30;22.80;;;;;;;;;;5115241;28;20189;-76
2022/08/01 07:02:45;;;;;;;23.67;22.20;;;;;;;;;;5115410;28;20193;-76
2022/08/01 07:05:12;;;;;;;23.38;21.95;;;;;;;;;;5115414;28;20209;-79
2022/08/01 07:07:39;;;;;;;22.83;21.42;;;;;;;;;;5115215;28;20201;-76
2022/08/01 07:10:08;;;;;;;23.02;21.52;;;;;;;;;;5115222;28;20193;-76
2022/08/01 07:12:37;;;;;;;22.20;20.80;;;;;;;;;;5115165;28;20193;-74
2022/08/01 07:15:05;;;;;;;26.13;24.52;;;;;;;;;;5115055;28;20199;-75
2022/08/01 07:17:32;;;;;;;23.33;21.83;;;;;;;;;;5115020;28;20681;-76
2022/08/01 07:19:59;;;;;;;22.48;21.08;;;;;;;;;;5114955;28;20195;-81
2022/08/01 07:22:26;;;;;;;22.65;21.17;;;;;;;;;;5114893;28;20229;-78
2022/08/01 07:24:53;;;;;;;21.85;20.40;;;;;;;;;;5114886;28;20254;-81
2022/08/01 07:27:20;;;;;;;24.25;22.65;;;;;;;;;;5114967;28;20724;-81
2022/08/01 07:29:49;;;;;;;21.88;20.48;;;;;;;;;;5114814;28;20575;-77
2022/08/01 07:32:16;;;;;;;21.83;20.42;;;;;;;;;;5114775;28;20243;-81
2022/08/01 07:34:43;;;;;;;21.80;20.40;;;;;;;;;;5114703;28;20250;-79
2022/08/01 07:37:10;;;;;;;22.90;21.48;;;;;;;;;;5115457;28;20189;-79
2022/08/01 07:39:37;;;;;;;23.00;21.58;;;;;;;;;;5114936;28;20197;-77
2022/08/01 07:42:04;;;;;;;21.63;20.17;;;;;;;;;;5114569;28;20279;-77
2022/08/01 07:44:31;;;;;;;22.38;20.98;;;;;;;;;;5114306;28;20233;-77
2022/08/01 07:46:59;;;;;;;22.77;21.35;;;;;;;;;;5114668;28;20197;-76
2022/08/01 07:49:26;;;;;;;22.23;20.80;;;;;;;;;;5114299;28;20197;-77
2022/08/01 07:51:54;;;;;;;23.40;21.90;;;;;;;;;;5115238;28;20208;-77
2022/08/01 07:54:23;;;;;;;20.33;18.92;;;;;;;;;;5114297;28;20658;-76
2022/08/01 07:56:50;;;;;;;20.90;19.50;;;;;;;;;;5114644;28;20197;-76
2022/08/01 07:59:22;;;;;;;20.80;19.40;;;;;;;;;;5114209;28;20189;-76
2022/08/01 08:01:49;;;;;;;22.27;20.77;;;;;;;;;;5114440;28;20220;-76
2022/08/01 08:04:18;;;;;;;22.70;21.10;;;;;;;;;;5114127;28;20258;-75
2022/08/01 08:06:47;;;;;;;21.10;19.70;;;;;;;;;;5114081;28;20655;-76
2022/08/01 08:09:14;;;;;;;21.17;19.70;;;;;;;;;;5114118;28;20193;-76
2022/08/01 08:11:42;;;;;;;23.60;21.80;;;;;;;;;;5113999;28;20236;-76
2022/08/01 08:14:09;;;;;;;20.45;19.05;;;;;;;;;;5114014;28;20571;-77
2022/08/01 08:16:36;;;;;;;22.42;20.92;;;;;;;;;;5114027;28;20199;-75
2022/08/01 08:19:03;;;;;;;20.98;19.58;;;;;;;;;;5113795;28;20193;-77
2022/08/01 08:21:32;;;;;;;20.63;19.23;;;;;;;;;;5113761;28;20224;-77
2022/08/01 08:26:43;;;;;;;20.70;19.30;;;;;;;;;;5114147;28;20176;-74
2022/08/01 08:29:10;;;;;;;20.77;19.33;;;;;;;;;;5113667;28;20193;-76
2022/08/01 08:31:37;;;;;;;22.23;20.73;;;;;;;;;;5113614;28;20649;-78
2022/08/01 08:34:04;;;;;;;22.08;20.58;;;;;;;;;;5113882;28;20197;-75
2022/08/01 08:36:33;;;;;;;21.65;20.17;;;;;;;;;;5113544;28;20193;-75
2022/08/01 08:39:00;;;;;;;21.45;20.05;;;;;;;;;;5113766;28;20193;-76
2022/08/01 08:41:27;;;;;;;22.33;20.83;;;;;;;;;;5113301;28;20334;-75
2022/08/01 08:43:56;;;;;;;21.75;20.25;;;;;;;;;;5113205;28;20281;-83
2022/08/01 08:46:24;;;;;;;21.55;20.05;;;;;;;;;;5113321;28;20197;-75
2022/08/01 08:48:52;;;;;;;21.13;19.73;;;;;;;;;;5113241;28;20225;-76
2022/08/01 08:51:20;;;;;;;21.60;20.10;;;;;;;;;;5113159;28;20197;-79
2022/08/01 08:53:48;;;;;;;21.83;20.33;;;;;;;;;;5113105;28;20192;-74
2022/08/01 08:56:16;;;;;;;22.67;21.17;;;;;;;;;;5113199;28;20280;-75
2022/08/01 08:58:44;;;;;;;22.10;20.60;;;;;;;;;;5112857;28;20200;-74
2022/08/01 09:01:12;;;;;;;21.42;19.92;;;;;;;;;;5112600;28;20230;-76
2022/08/01 09:03:39;;;;;;;22.55;20.95;;;;;;;;;;5113039;28;20204;-74
2022/08/01 09:06:06;;;;;;;24.20;22.50;;;;;;;;;;5113086;28;20199;-75
2022/08/01 09:08:34;;;;;;;23.10;21.50;;;;;;;;;;5112989;28;20227;-76
2022/08/01 09:11:02;;;;;;;22.48;20.92;;;;;;;;;;5112964;28;20197;-75
2022/08/01 09:13:29;;;;;;;21.90;20.40;;;;;;;;;;5112879;28;20670;-73
2022/08/01 09:15:58;;;;;;;21.80;20.30;;;;;;;;;;5112830;28;20204;-73
2022/08/01 09:18:30;;;;;;;22.58;20.98;;;;;;;;;;5112911;28;20247;-79
2022/08/01 09:21:09;;;;;;;22.92;20.75;;;;;;;;;;5112732;28;20224;-76
2022/08/01 09:23:39;;;;;;;21.67;20.17;;;;;;;;;;5112760;28;20193;-75
2022/08/01 09:26:08;;;;;;;21.40;19.90;;;;;;;;;;5112915;28;20280;-77
2022/08/01 09:28:35;;;;;;;21.48;19.98;;;;;;;;;;5112657;28;20197;-77
2022/08/01 09:31:06;;;;;;;22.10;20.52;;;;;;;;;;5112685;28;20612;-72
2022/08/01 09:33:48;;;;;;;23.45;21.77;;;;;;;;;;5112625;28;20272;-76
2022/08/01 09:36:15;;;;;;;22.20;20.70;;;;;;;;;;5112651;28;20272;-77
2022/08/01 09:38:42;;;;;;;21.40;19.90;;;;;;;;;;5112894;28;20189;-77
2022/08/01 09:41:11;;;;;;;22.02;20.52;;;;;;;;;;5112414;28;20192;-77
2022/08/01 09:43:38;;;;;;;22.08;20.48;;;;;;;;;;5112610;28;20225;-75
2022/08/01 09:46:06;;;;;;;21.15;19.65;;;;;;;;;;5112783;28;20627;-80
2022/08/01 09:48:33;;;;;;;20.90;19.40;;;;;;;;;;5112691;28;20275;-76
2022/08/01 09:51:00;;;;;;;20.50;19.10;;;;;;;;;;5112703;28;20558;-76
2022/08/01 09:53:27;;;;;;;21.35;19.85;;;;;;;;;;5113176;28;20208;-75
2022/08/01 09:55:55;;;;;;;20.67;19.27;;;;;;;;;;5112706;28;20193;-73
2022/08/01 09:58:23;;;;;;;21.65;20.15;;;;;;;;;;5112316;28;20192;-78
2022/08/01 10:00:59;;;;;;;21.80;20.30;;;;;;;;;;5112296;28;20280;-75
2022/08/01 10:03:29;;;;;;;21.55;20.05;;;;;;;;;;5112255;28;20220;-77
2022/08/01 10:05:56;;;;;;;23.45;21.80;;;;;;;;;;5112252;28;20236;-75
2022/08/01 10:08:25;;;;;;;22.13;20.52;;;;;;;;;;5112231;28;20231;-76
2022/08/01 10:11:07;;;;;;;21.02;19.52;;;;;;;;;;5113506;28;20193;-76
2022/08/01 10:13:36;;;;;;;22.73;21.23;;;;;;;;;;5112978;28;20192;-75
2022/08/01 10:16:03;;;;;;;21.90;20.30;;;;;;;;;;5116239;28;20228;-77
2022/08/01 10:18:32;;;;;;;22.88;21.35;;;;;;;;;;5116179;28;20337;-80
2022/08/01 10:20:59;;;;;;;20.42;19.02;;;;;;;;;;5116072;28;20189;-76
2022/08/01 10:23:27;;;;;;;20.15;18.75;;;;;;;;;;5116003;28;20235;-76
2022/08/01 10:25:55;;;;;;;20.00;18.60;;;;;;;;;;5116333;28;20682;-75
2022/08/01 10:28:22;;;;;;;19.73;18.33;;;;;;;;;;5116026;28;20280;-76
2022/08/01 10:30:51;;;;;;;21.67;20.17;;;;;;;;;;5115934;28;20674;-76
2022/08/01 10:33:19;;;;;;;21.38;19.92;;;;;;;;;;5115929;28;20232;-76
2022/08/01 10:35:46;;;;;;;22.42;20.83;;;;;;;;;;5116165;28;20201;-79
2022/08/01 10:38:13;;;;;;;21.52;20.13;;;;;;;;;;5116134;28;20289;-74
2022/08/01 10:40:40;;;;;;;21.80;20.30;;;;;;;;;;5115757;28;20193;-75
2022/08/01 10:43:07;;;;;;;22.52;21.02;;;;;;;;;;5115222;28;20343;-76
2022/08/01 10:45:35;;;;;;;23.30;21.80;;;;;;;;;;5115687;28;20225;-78
2022/08/01 10:48:10;;;;;;;22.55;21.05;;;;;;;;;;5115655;28;20257;-74
2022/08/01 10:50:40;;;;;;;22.63;21.13;;;;;;;;;;5115633;28;20664;-75
2022/08/01 10:53:13;;;;;;;28.13;22.17;;;;;;;;;;5115590;28;20673;-73
2022/08/01 10:55:59;;;;;;;22.88;21.38;;;;;;;;;;5116063;28;20193;-74
2022/08/01 10:58:27;;;;;;;23.05;21.45;;;;;;;;;;5115507;28;20193;-78
2022/08/01 11:01:12;;;;;;;22.23;20.73;;;;;;;;;;5115466;28;20205;-75
2022/08/01 11:03:41;;;;;;;21.60;20.10;;;;;;;;;;5115220;28;20228;-76
2022/08/01 11:06:17;;;;;;;22.08;20.58;;;;;;;;;;5115376;28;20204;-76
2022/08/01 11:08:55;;;;;;;21.50;20.05;;;;;;;;;;5116076;28;20273;-82
2022/08/01 11:11:22;;;;;;;20.88;19.48;;;;;;;;;;5115250;28;20193;-74
2022/08/01 11:14:02;;;;;;;21.38;19.88;;;;;;;;;;5115225;28;20197;-77
2022/08/01 11:16:29;;;;;;;21.88;20.38;;;;;;;;;;5115301;28;20196;-76
2022/08/01 11:19:08;;;;;;;21.35;19.85;;;;;;;;;;5115179;28;20197;-78
2022/08/01 11:21:54;;;;;;;22.05;20.55;;;;;;;;;;5114324;28;20199;-77
2022/08/01 11:24:36;;;;;;;21.73;20.23;;;;;;;;;;5114944;28;20284;-76
2022/08/01 11:27:27;;;;;;;21.52;20.08;;;;;;;;;;5114132;28;20568;-82
2022/08/01 11:30:13;;;;;;;21.88;20.38;;;;;;;;;;5089747;28;20220;-80
2022/08/01 11:32:47;;;;;;;21.25;19.85;;;;;;;;;;5114842;28;20231;-81
2022/08/01 11:35:16;;;;;;;21.65;20.25;;;;;;;;;;5114764;28;20195;-78
2022/08/01 11:37:43;;;;;;;21.90;20.50;;;;;;;;;;5114784;28;20614;-77
2022/08/01 11:40:17;;;;;;;22.65;21.15;;;;;;;;;;5114674;28;20193;-79
2022/08/01 11:42:44;;;;;;;22.65;21.15;;;;;;;;;;5114664;28;20720;-78
2022/08/01 11:45:12;;;;;;;22.88;21.38;;;;;;;;;;5114392;28;20228;-75
2022/08/01 11:47:44;;;;;;;22.15;20.75;;;;;;;;;;5114835;28;20263;-75
2022/08/01 11:53:08;;;;;;;22.40;20.90;;;;;;;;;;5110691;27;20907;-76
2022/08/01 11:55:36;;;;;;;21.77;20.33;;;;;;;;;;5109923;28;20201;-76
2022/08/01 11:58:04;;;;;;;22.83;21.33;;;;;;;;;;5110352;28;20200;-77
2022/08/01 12:00:31;;;;;;;23.20;21.60;;;;;;;;;;5109847;28;20239;-79
2022/08/01 12:02:59;;;;;;;22.08;20.60;;;;;;;;;;5109812;28;20200;-79
2022/08/01 12:05:27;;;;;;;21.70;20.20;;;;;;;;;;5109748;28;20199;-77
2022/08/01 12:07:54;;;;;;;21.42;20.02;;;;;;;;;;5110044;28;20638;-76
2022/08/01 12:10:23;;;;;;;21.50;20.05;;;;;;;;;;5109749;28;20587;-80
2022/08/01 12:12:52;;;;;;;21.67;20.08;;;;;;;;;;5109637;28;20637;-76
2022/08/01 12:15:19;;;;;;;21.30;19.80;;;;;;;;;;5109580;28;20204;-79
2022/08/01 12:17:47;;;;;;;21.23;19.73;;;;;;;;;;5109589;28;20208;-79
2022/08/01 12:20:14;;;;;;;22.13;20.52;;;;;;;;;;5109843;28;20197;-76
2022/08/01 12:22:43;;;;;;;21.88;20.38;;;;;;;;;;5109483;28;20654;-79
2022/08/01 12:25:11;;;;;;;22.10;20.50;;;;;;;;;;5109345;28;20637;-74
2022/08/01 12:27:40;;;;;;;21.02;19.52;;;;;;;;;;5109649;28;20275;-77
2022/08/01 12:30:08;;;;;;;21.70;20.10;;;;;;;;;;5109630;28;20200;-78
2022/08/01 12:32:36;;;;;;;21.85;20.25;;;;;;;;;;5109162;28;20282;-77
2022/08/01 12:35:04;;;;;;;21.85;20.33;;;;;;;;;;5109231;28;20193;-77
2022/08/01 12:37:31;;;;;;;21.38;19.88;;;;;;;;;;5109085;28;20254;-77
2022/08/01 12:39:58;;;;;;;21.23;19.73;;;;;;;;;;5109139;28;20222;-76
2022/08/01 12:42:25;;;;;;;21.65;20.15;;;;;;;;;;5109393;28;20197;-77
2022/08/01 12:44:54;;;;;;;22.10;20.60;;;;;;;;;;5109006;28;20197;-78
2022/08/01 12:47:22;;;;;;;21.38;19.88;;;;;;;;;;5109263;28;20259;-82
2022/08/01 12:49:49;;;;;;;21.65;20.15;;;;;;;;;;5108898;28;20276;-77
2022/08/01 12:52:21;;;;;;;21.35;19.85;;;;;;;;;;5108704;28;20809;-75
2022/08/01 12:55:10;;;;;;;21.48;19.98;;;;;;;;;;5109170;28;20655;-78
2022/08/01 12:57:39;;;;;;;21.10;19.60;;;;;;;;;;5108812;28;20667;-78
2022/08/01 13:00:09;;;;;;;21.60;20.10;;;;;;;;;;5108767;28;20201;-76
2022/08/01 13:02:36;;;;;;;21.73;20.23;;;;;;;;;;5105443;28;20280;-77
2022/08/01 13:05:03;;;;;;;20.88;19.48;;;;;;;;;;5095050;28;20660;-76
2022/08/01 13:07:40;;;;;;;21.35;19.85;;;;;;;;;;5095045;28;20278;-75
2022/08/01 13:10:07;;;;;;;21.20;19.70;;;;;;;;;;5095290;28;20626;-82
2022/08/01 13:12:34;;;;;;;21.58;20.08;;;;;;;;;;5095160;28;20229;-80
2022/08/01 13:17:55;;;;;;;22.05;20.45;;;;;;;;;;5110775;27;20563;-81
2022/08/01 13:20:23;;;;;;;21.73;20.15;;;;;;;;;;5109904;28;20255;-79
2022/08/01 13:22:51;;;;;;;22.67;21.08;;;;;;;;;;5109944;28;20666;-77
2022/08/01 13:25:18;;;;;;;21.27;19.77;;;;;;;;;;5109847;28;20637;-80
2022/08/01 13:27:45;;;;;;;22.08;20.50;;;;;;;;;;5109794;28;20199;-78
2022/08/01 13:30:13;;;;;;;22.33;20.73;;;;;;;;;;5109799;28;20193;-79
2022/08/01 13:32:40;;;;;;;22.58;20.98;;;;;;;;;;5109748;28;20254;-74
2022/08/01 13:35:09;;;;;;;23.00;21.40;;;;;;;;;;5109930;28;20257;-78
2022/08/01 13:37:37;;;;;;;21.58;20.08;;;;;;;;;;5109522;28;20229;-76
2022/08/01 13:40:04;;;;;;;22.17;20.58;;;;;;;;;;5109608;28;20199;-81
2022/08/01 13:42:31;;;;;;;21.80;20.20;;;;;;;;;;5109512;28;20200;-80
2022/08/01 13:44:58;;;;;;;23.63;21.92;;;;;;;;;;5109785;28;20221;-78
2022/08/01 13:47:25;;;;;;;22.02;20.42;;;;;;;;;;5109458;28;20675;-76
2022/08/01 13:49:52;;;;;;;23.45;21.85;;;;;;;;;;5109737;28;20625;-76
2022/08/01 13:52:21;;;;;;;22.50;20.90;;;;;;;;;;5109636;28;20198;-74
2022/08/01 13:54:48;;;;;;;22.60;21.00;;;;;;;;;;5109341;28;20197;-75
2022/08/01 13:57:16;;;;;;;23.42;21.83;;;;;;;;;;5109456;28;20264;-76
2022/08/01 13:59:43;;;;;;;22.70;21.05;;;;;;;;;;5109278;28;20272;-80
2022/08/01 14:02:10;;;;;;;24.10;22.40;;;;;;;;;;5109488;28;20197;-76
2022/08/01 14:04:37;;;;;;;25.65;23.85;;;;;;;;;;5109367;28;20208;-76
2022/08/01 14:07:04;;;;;;;26.10;24.30;;;;;;;;;;5109066;28;20200;-76
2022/08/01 14:09:33;;;;;;;23.40;21.70;;;;;;;;;;5109056;28;20634;-76
2022/08/01 14:12:00;;;;;;;22.50;20.88;;;;;;;;;;5109009;28;20223;-75
2022/08/01 14:14:27;;;;;;;24.50;22.80;;;;;;;;;;5109211;28;20200;-79
2022/08/01 14:16:54;;;;;;;23.98;22.27;;;;;;;;;;5108751;28;20245;-76
2022/08/01 14:19:21;;;;;;;23.25;21.55;;;;;;;;;;5109179;28;20194;-77
2022/08/01 14:21:48;;;;;;;23.85;22.15;;;;;;;;;;5108876;28;20190;-77
2022/08/01 14:24:14;;;;;;;23.70;22.00;;;;;;;;;;5108752;28;20276;-76
2022/08/01 14:26:43;;;;;;;22.95;21.35;;;;;;;;;;5108899;28;20208;-79
2022/08/01 14:29:10;;;;;;;23.05;21.45;;;;;;;;;;5095943;28;20572;-76
2022/08/01 14:31:37;;;;;;;22.48;20.88;;;;;;;;;;5095010;28;20285;-77
2022/08/01 14:34:04;;;;;;;23.20;21.50;;;;;;;;;;5094951;28;20201;-80